Central Point, Oregon
Current Conditions -  °F | °C
As of 11:53 PM on Thursday 18 Dec 2014 (Local Time) from KMFR Reporting Station
Light Rain Light Rain  
Wind Chill: 50°   Ceiling: 3600
Heat Index: 50°   Visibility: 8mi
Dew Point: 43°   Wind: 7mph
Humidity: 77%   Direction: 200°SSW
Pressure: 29.96"   Gusts: NA
Location:  42.38°N, 122.91°W
Report Text: KMFR 190753Z AUTO 20006KT 8SM -RA BKN036 OVC046 10/06 A2996 RMK AO2 SLP145 P0005 T01000061 401220033
Loading
Personal Weather Stations






























Interactive Weather Map New forecast layout! Learn more

10-Day Weather Forecast

Advertisements
Track Severe Weather on mobile